Aeroporto :
LOGIN :

Iscrizione | Disclaimer

   EN    FR    IT 

 










Sommario :    VFR   VFR Marginale   IFR   IFR Intensivo   IFR Molto Intensivo
Visibilità : 
Base nubi : 
>= 8 km
>= 3000ft
5 / 8 km
1000 / 3000 ft
1500m / 5 km
500 / 1000 ft
800 / 1500m
200 / 500 ft
< 800m
< 200 ft
Simboli :   Temporali  Nebbia  Neve Forte  Precipitazioni Forti  Vento > 20 kt
SIGMETs :   Varie  Temporali  Ghiacco  Turbolenza  Onda orograficha  Ceneri Vulcaniche







- Altitudine del aeroporto : 3125 ft
- Codice IATA : ESB


LTAC - Ankara Esenboga

ULTIMO METAR :
  • 201650Z 03012KT 9999 SCT040 BKN100 21/13 Q1018 NOSIG RMK RWY21L 01011KT RWY03L 02011KT RWY21R 02012KT

METARs OBSOLETI :
  • 201620Z 02013KT 9999 SCT040 SCT100 22/12 Q1018 TEMPO -TSRA
  • 201550Z 05014KT 9999 SCT040 SCT100 22/12 Q1018 TEMPO -TSRA
  • 201520Z 07016KT 9999 SCT040 SCT100 23/12 Q1017 NOSIG
  • 201450Z 04017KT 9999 SCT040 SCT100 24/12 Q1017 NOSIG RMK RWY21L 03016KT RWY03L 03015KT 360V060 RWY21R 03016KT
  • 201420Z 05016KT 9999 SCT040 SCT100 25/11 Q1017 NOSIG RMK RWY21L 04016KT RWY03L 05015KT RWY21R 05017KT 020V080

TAF TAF LTAC
Valido dal 20 a 12 ore il 21 a 12 ore UTC


201040Z 2012/2112 04012KT 9999 SCT040
TEMPO 2016/2020 04015G25KT -TSRA FEW025CB BKN030
BECMG 2020/2022 VRB02KT
TEMPO 2022/2102 -SHRA FEW025CB BKN030
TEMPO 2108/2112 -SHRA FEW025CB BKN030
Nessun NOTAM noto per questo aeroporto.



MetMap, La meteo Aeronautica in un colpo d'occhio ! - Copyright ORBIFLY Dicembre 2007 - Disclaimer

ORBIFLY MET'MAP TEAM :

Programmazione e sviluppo : Alexandra Zaïnal
Concezione e sviluppo : Baudouin d'Aumeries
Co-Programmazione e sviluppo : Marc-Olivier Méhu
Supporto tecnico e logistico : Manuel Goepfert
Aiuto per la traduzione : Arnaldo La Scala

Contatto : metmap@orbifly.com




FONTI E CREDITI :

   NOAA